• Join FlightAware (Why Join?)
  • Login
  • US Flag 
02:47AM EDT


 

Airport Tracker/Info


-or-


 

Live Flight TrackerFlight Track Log ✈ VH-MKM ✈ 13-May-2013 ✈ YBCG / OOL - YCWR / CWT

Flight Track Log - Related Links

Times and Time Zones

All times are in EDT time to prevent confusion due to time zone crossing. See the VH-MKM flight status page for this flight to view local times or setup timezone preferences in your user account.

Time Position Orientation Groundspeed Altitude Reporting Facility
EDT Latitude Longitude Course Direction KTS MPH feet Rate Location/Type
09:51PM -28.1774 153.5148 153° Southeast 100 115 500  Level Aus ATC (RADAR)
09:51PM -28.1922 153.5233 153° Southeast 102 117 1,000 360 Climbing Aus ATC (RADAR)
09:52PM -28.2008 153.5170 213° Southwest 102 117 1,100 300 Climbing Aus ATC (RADAR)
09:52PM -28.2120 153.5040 213° Southwest 105 121 1,200 240 Climbing FlightAware
09:52PM -28.2200 153.4940 228° Southwest 105 121 1,200 240 Level FlightAware
09:53PM -28.2141 153.5023 228° Southwest 111 128 1,400 600 Climbing Aus ATC (RADAR)
09:53PM -28.2257 153.4902 223° Southwest 113 130 1,700 960 Climbing Aus ATC (RADAR)
09:54PM -28.2503 153.4658 221° Southwest 119 137 2,400 600 Climbing Aus ATC (RADAR)
09:55PM -28.2700 153.4466 221° Southwest 112 129 2,900 360 Climbing Aus ATC (RADAR)
09:56PM -28.2720 153.4444 225° Southwest 113 130 3,000 180 Climbing Aus ATC (RADAR)
09:56PM -28.2781 153.4386 220° Southwest 114 131 3,100 120 Climbing Aus ATC (RADAR)
09:57PM -28.2841 153.4330 219° Southwest 113 130 3,200 240 Climbing Aus ATC (RADAR)
09:57PM -28.2963 153.4216 220° Southwest 112 129 3,500 840 Climbing Aus ATC (RADAR)
09:58PM -28.3412 153.3781 220° Southwest 117 135 4,500 1,320 Climbing Aus ATC (RADAR)
09:59PM -28.3627 153.3499 229° Southwest 116 133 5,200 960 Climbing Aus ATC (RADAR)
09:59PM -28.3837 153.3220 229° Southwest 116 133 5,700 420 Climbing Aus ATC (RADAR)
10:00PM -28.3892 153.3150 228° Southwest 116 133 5,900 180 Climbing Aus ATC (RADAR)
10:01PM -28.3928 153.3102 229° Southwest 117 135 5,900 180 Level Aus ATC (RADAR)
10:01PM -28.3982 153.3029 230° Southwest 119 137 6,100 180 Climbing Aus ATC (RADAR)
10:02PM -28.4055 153.2934 229° Southwest 119 137 6,200 240 Climbing Aus ATC (RADAR)
10:02PM -28.4128 153.2839 229° Southwest 119 137 6,400 840 Climbing Aus ATC (RADAR)
10:03PM -28.4502 153.2345 229° Southwest 118 136 7,400 1,260 Climbing Aus ATC (RADAR)
10:03PM -28.4720 153.2050 229° Southwest 118 136 7,700 600 Climbing FlightAware
10:04PM -28.4932 153.1782 229° Southwest 132 152 8,000 120 Climbing Aus ATC (RADAR)
10:05PM -28.5285 153.1315 229° Southwest 160 184 8,000  Level Aus ATC (RADAR)
10:06PM -28.5416 153.1152 228° Southwest 166 191 8,000  Level Aus ATC (RADAR)
10:06PM -28.5586 153.0910 231° Southwest 167 192 8,000 -120 Level Aus ATC (RADAR)
10:07PM -28.5670 153.0800 231° Southwest 164 189 7,900  Descending FlightAware
10:07PM -28.5809 153.0618 231° Southwest 163 188 8,000 60 Climbing Aus ATC (RADAR)
10:08PM -28.6006 153.0360 229° Southwest 162 186 8,000 -120 Level Aus ATC (RADAR)
10:08PM -28.6090 153.0240 229° Southwest 163 188 7,900  Descending FlightAware
10:09PM -28.6255 153.0037 229° Southwest 163 188 8,000  Climbing Aus ATC (RADAR)
10:11PM -28.6956 152.9107 229° Southwest 167 192 8,000  Level Aus ATC (RADAR)
10:12PM -28.7150 152.8831 231° Southwest 167 192 8,000  Level Aus ATC (RADAR)
10:12PM -28.7250 152.8696 230° Southwest 167 192 8,000  Level Aus ATC (RADAR)
10:13PM -28.7428 152.8467 229° Southwest 165 190 8,000  Level Aus ATC (RADAR)
10:13PM -28.7605 152.8239 228° Southwest 164 189 8,000  Level Aus ATC (RADAR)
10:14PM -28.7803 152.7967 230° Southwest 167 192 8,000  Level Aus ATC (RADAR)
10:15PM -28.8030 152.7661 230° Southwest 169 194 8,000  Level Aus ATC (RADAR)
10:16PM -28.8368 152.7231 228° Southwest 167 192 8,000  Level Aus ATC (RADAR)
10:16PM -28.8540 152.6987 231° Southwest 168 193 8,000  Level Aus ATC (RADAR)
10:17PM -28.8749 152.6723 228° Southwest 169 194 8,000 -120 Level Aus ATC (RADAR)
10:17PM -28.8780 152.6660 228° Southwest 169 194 7,900  Descending FlightAware
10:18PM -28.8994 152.6379 228° Southwest 167 192 8,000 60 Climbing Aus ATC (RADAR)
10:18PM -28.9128 152.6221 226° Southwest 167 192 8,000  Level Aus ATC (RADAR)
10:19PM -28.9306 152.5988 229° Southwest 167 192 8,000  Level Aus ATC (RADAR)
10:20PM -28.9567 152.5657 228° Southwest 169 194 8,000  Level Aus ATC (RADAR)
10:21PM -28.9918 152.5274 224° Southwest 162 186 8,000  Level Aus ATC (RADAR)
10:21PM -29.0136 152.4973 230° Southwest 163 188 8,000 -120 Level Aus ATC (RADAR)
10:22PM -29.0310 152.4784 224° Southwest 152 175 7,900  Descending Aus ATC (RADAR)
10:29PM -29.2117 152.2814 228° Southwest 8,000  Climbing Aus ATC (Calculated)
10:31PM -29.2325 152.2551 228° Southwest  Level FlightAware Approximate
10:32PM -29.2440 152.2405 228° Southwest  Level FlightAware Approximate
10:32PM -29.3278 152.1340 228° Southwest 8,000  Level Aus ATC (Calculated)
10:34PM -29.3435 152.1140 228° Southwest  Level FlightAware Approximate
10:35PM -29.3550 152.0993 228° Southwest  Level FlightAware Approximate
10:36PM -29.3665 152.0846 228° Southwest  Level FlightAware Approximate
10:37PM -29.3780 152.0700 228° Southwest  Level FlightAware Approximate
10:38PM -29.3895 152.0553 228° Southwest  Level FlightAware Approximate
10:39PM -29.4010 152.0406 228° Southwest  Level FlightAware Approximate
10:40PM -29.4125 152.0259 228° Southwest  Level FlightAware Approximate
10:41PM -29.4240 152.0113 228° Southwest  Level FlightAware Approximate
10:41PM -29.6233 151.7514 228° Southwest 167 192 8,000  Level Aus ATC (RADAR)
10:42PM -29.6387 151.7336 225° Southwest 162 186 8,000  Level Aus ATC (RADAR)
10:42PM -29.6565 151.7122 226° Southwest 160 184 8,000  Level Aus ATC (RADAR)
10:43PM -29.6791 151.6844 227° Southwest 160 184 8,000  Level Aus ATC (RADAR)
10:44PM -29.6977 151.6643 223° Southwest 160 184 8,000  Level Aus ATC (RADAR)
10:44PM -29.7250 151.6353 223° Southwest 160 184 8,000  Level Aus ATC (RADAR)
10:45PM -29.7355 151.6228 226° Southwest 161 185 8,000  Level Aus ATC (RADAR)
10:45PM -29.7539 151.6033 222° Southwest 157 181 8,000  Level Aus ATC (RADAR)
10:46PM -29.7884 151.5649 224° Southwest 160 184 8,000  Level Aus ATC (RADAR)
10:47PM -29.8019 151.5504 223° Southwest 160 184 8,000  Level Aus ATC (RADAR)
10:47PM -29.8200 151.5315 222° Southwest 153 176 8,000  Level Aus ATC (RADAR)
10:48PM -29.8461 151.5017 225° Southwest 158 182 8,000  Level Aus ATC (RADAR)
10:49PM -29.8647 151.4799 225° Southwest 163 188 8,000  Level Aus ATC (RADAR)
10:50PM -29.8917 151.4518 222° Southwest 158 182 8,000  Level Aus ATC (RADAR)
10:50PM -29.9131 151.4265 226° Southwest 164 189 8,000  Level Aus ATC (RADAR)
10:52PM -29.9643 151.3722 223° Southwest 161 185 8,000  Level Aus ATC (RADAR)
10:52PM -29.9725 151.3640 221° Southwest 160 184 8,000  Level Aus ATC (RADAR)
10:53PM -29.9916 151.3426 224° Southwest 163 188 8,000  Level Aus ATC (RADAR)
10:54PM -30.0190 151.3115 224° Southwest 166 191 8,000  Level Aus ATC (RADAR)
10:54PM -30.0383 151.2897 224° Southwest 167 192 8,000  Level Aus ATC (RADAR)
10:55PM -30.0659 151.2584 224° Southwest 169 194 8,000  Level Aus ATC (RADAR)
10:55PM -30.0796 151.2437 223° Southwest 166 191 8,000  Level Aus ATC (RADAR)
10:57PM -30.1222 151.1976 223° Southwest 158 182 8,000  Level Aus ATC (RADAR)
10:57PM -30.1356 151.1819 225° Southwest 161 185 8,000  Level Aus ATC (RADAR)
10:58PM -30.1570 151.1578 224° Southwest 162 186 8,000  Level Aus ATC (RADAR)
10:59PM -30.1812 151.1305 224° Southwest 163 188 8,000  Level Aus ATC (RADAR)
10:59PM -30.2000 151.1098 224° Southwest 163 188 8,000  Level Aus ATC (RADAR)
11:00PM -30.2268 151.0801 224° Southwest 160 184 8,000  Level Aus ATC (RADAR)
11:00PM -30.2400 151.0654 224° Southwest 159 183 8,000  Level Aus ATC (RADAR)
11:02PM -30.2830 151.0154 225° Southwest 161 185 8,000  Level Aus ATC (RADAR)
11:02PM -30.2989 150.9976 224° Southwest 160 184 8,000  Level Aus ATC (RADAR)
11:03PM -30.3179 150.9762 224° Southwest 162 186 8,000  Level Aus ATC (RADAR)
11:04PM -30.3445 150.9467 224° Southwest 159 183 8,000  Level Aus ATC (RADAR)
11:04PM -30.3632 150.9256 224° Southwest 160 184 8,000  Level Aus ATC (RADAR)
11:05PM -30.3898 150.8962 224° Southwest 159 183 8,000  Level Aus ATC (RADAR)
11:06PM -30.4033 150.8808 224° Southwest 161 185 8,000  Level Aus ATC (RADAR)
11:07PM -30.4401 150.8397 224° Southwest 156 180 8,000  Level Aus ATC (RADAR)
11:07PM -30.4537 150.8243 224° Southwest 160 184 8,000  Level Aus ATC (RADAR)
11:08PM -30.4750 150.8002 224° Southwest 161 185 8,000  Level Aus ATC (RADAR)
11:09PM -30.4986 150.7739 224° Southwest 158 182 8,000  Level Aus ATC (RADAR)
11:09PM -30.5169 150.7535 224° Southwest 157 181 8,000  Level Aus ATC (RADAR)
11:10PM -30.5434 150.7233 224° Southwest 161 185 8,000  Level Aus ATC (RADAR)
11:10PM -30.5563 150.7090 224° Southwest 158 182 8,000  Level Aus ATC (RADAR)
11:12PM -30.5995 150.6605 224° Southwest 155 178 8,000  Level Aus ATC (RADAR)
11:12PM -30.6126 150.6457 224° Southwest 157 181 8,000  Level Aus ATC (RADAR)
11:13PM -30.6254 150.6311 224° Southwest 156 180 8,000  Level Aus ATC (RADAR)
11:13PM -30.6433 150.6108 224° Southwest 155 178 8,000  Level Aus ATC (RADAR)
11:14PM -30.6695 150.5814 224° Southwest 158 182 8,000  Level Aus ATC (RADAR)
11:15PM -30.6875 150.5609 224° Southwest 157 181 8,000  Level Aus ATC (RADAR)
11:16PM -30.7151 150.5298 224° Southwest 153 176 8,000  Level Aus ATC (RADAR)
11:16PM -30.7229 150.5210 224° Southwest 155 178 8,000  Level Aus ATC (RADAR)
11:17PM -30.7643 150.4738 224° Southwest 157 181 8,000  Level Aus ATC (RADAR)
11:18PM -30.7774 150.4589 224° Southwest 158 182 8,000  Level Aus ATC (RADAR)
11:18PM -30.7960 150.4380 224° Southwest 159 183 8,000  Level Aus ATC (RADAR)
11:19PM -30.8213 150.4094 224° Southwest 154 177 8,000  Level Aus ATC (RADAR)
11:20PM -30.8387 150.3895 224° Southwest 152 175 8,000  Level Aus ATC (RADAR)
11:20PM -30.8651 150.3600 224° Southwest 158 182 8,000  Level Aus ATC (RADAR)
11:21PM -30.8781 150.3454 224° Southwest 157 181 8,000  Level Aus ATC (RADAR)
11:22PM -30.9121 150.3065 224° Southwest 149 171 8,000  Level Aus ATC (RADAR)
11:22PM -30.9248 150.2923 224° Southwest 151 174 8,000  Level Aus ATC (RADAR)
11:23PM -30.9350 150.2675 244° Southwest 149 171 8,000  Level Aus ATC (RADAR)
11:24PM -30.9759 150.2401 210° Southwest 148 170 8,000  Level Aus ATC (RADAR)
11:25PM -30.9932 150.2336 198° South 154 177 8,000  Level Aus ATC (RADAR)
11:25PM -31.0163 150.2211 205° Southwest 155 178 8,000  Level Aus ATC (RADAR)
11:26PM -31.0383 150.2088 205° Southwest 151 174 8,000  Level Aus ATC (RADAR)
11:27PM -31.0876 150.1822 205° Southwest 155 178 8,000  Level Aus ATC (RADAR)
11:27PM -31.1044 150.1734 204° Southwest 157 181 8,000  Level Aus ATC (RADAR)
11:28PM -31.1213 150.1644 205° Southwest 159 183 8,000  Level Aus ATC (RADAR)
11:28PM -31.1434 150.1525 205° Southwest 152 175 8,000  Level Aus ATC (RADAR)
11:29PM -31.1762 150.1350 205° Southwest 156 180 8,000  Level Aus ATC (RADAR)
11:30PM -31.1987 150.1228 205° Southwest 153 176 8,000  Level Aus ATC (RADAR)
11:31PM -31.2287 150.1071 204° Southwest 157 181 8,000  Level Aus ATC (RADAR)
11:31PM -31.2453 150.0968 208° Southwest 143 165 8,000  Level Aus ATC (RADAR)
11:32PM -31.2949 150.0700 205° Southwest 155 178 8,000  Level Aus ATC (RADAR)
11:33PM -31.3044 150.0647 205° Southwest 153 176 8,000  Level Aus ATC (RADAR)
11:33PM -31.3283 150.0521 204° Southwest 159 183 8,000  Level Aus ATC (RADAR)
11:34PM -31.3694 150.0306 204° Southwest 164 189 8,000  Level Aus ATC (RADAR)
11:35PM -31.3928 150.0172 206° Southwest 145 167 8,000  Level Aus ATC (RADAR)
11:35PM -31.4232 150.0005 205° Southwest 160 184 8,000  Level Aus ATC (RADAR)
11:36PM -31.4467 149.9879 205° Southwest 159 183 8,000  Level Aus ATC (RADAR)
11:38PM -31.5191 149.9495 204° Southwest 164 189 8,000  Level Aus ATC (RADAR)
11:38PM -31.5328 149.9422 204° Southwest 164 189 8,000  Level Aus ATC (RADAR)
11:39PM -31.5537 149.9295 207° Southwest 151 174 8,000  Level Aus ATC (RADAR)
11:39PM -31.5823 149.9126 207° Southwest 153 176 8,000  Level Aus ATC (RADAR)
11:40PM -31.6080 149.9001 203° Southwest 165 190 8,000  Level Aus ATC (RADAR)
11:41PM -31.6383 149.8837 205° Southwest 159 183 8,000  Level Aus ATC (RADAR)
11:41PM -31.6583 149.8737 203° Southwest 156 180 8,000  Level Aus ATC (RADAR)
11:43PM -31.7171 149.8417 205° Southwest 168 193 8,000  Level Aus ATC (RADAR)
11:43PM -31.7336 149.8306 209° Southwest 153 176 8,000  Level Aus ATC (RADAR)
11:44PM -31.7572 149.8180 205° Southwest 157 181 8,000  Level Aus ATC (RADAR)
11:44PM -31.7861 149.8052 201° Southwest 177 204 8,000  Level Aus ATC (RADAR)
11:45PM -31.8100 149.7925 204° Southwest 167 192 8,000  Level Aus ATC (RADAR)
11:46PM -31.8380 149.7736 210° Southwest 144 166 8,000  Level Aus ATC (RADAR)
11:46PM -31.8524 149.7638 210° Southwest 142 163 8,000  Level Aus ATC (RADAR)
11:47PM -31.8964 149.7399 205° Southwest 150 173 8,000  Level Aus ATC (RADAR)
11:48PM -31.9149 149.7320 200° South 158 182 8,000  Level Aus ATC (RADAR)
11:48PM -31.9372 149.7194 206° Southwest 155 178 8,000  Level Aus ATC (RADAR)
11:49PM -31.9687 149.7018 205° Southwest 153 176 8,000  Level Aus ATC (RADAR)
11:50PM -31.9962 149.6894 201° Southwest 169 194 8,000 -120 Level Aus ATC (RADAR)
11:51PM -32.0260 149.6708 208° Southwest 149 171 7,900  Descending Aus ATC (RADAR)
11:51PM -32.0422 149.6638 200° South 161 185 8,000  Climbing Aus ATC (RADAR)
11:52PM -32.0665 149.6489 207° Southwest 154 177 7,900  Descending Aus ATC (RADAR)
11:53PM -32.1134 149.6283 200° South 171 197 8,000  Climbing Aus ATC (RADAR)
11:53PM -32.1291 149.6163 213° Southwest 157 181 7,900  Descending Aus ATC (RADAR)
11:54PM -32.1515 149.6019 209° Southwest 149 171 8,000 60 Climbing Aus ATC (RADAR)
11:54PM -32.1822 149.5860 204° Southwest 158 182 8,000  Level Aus ATC (RADAR)
11:55PM -32.2039 149.5719 209° Southwest 155 178 8,000 -60 Level Aus ATC (RADAR)
11:58PM -32.3106 149.5118 204° Southwest -60 Descending Aus ATC (Calculated)
12:00AM -32.3324 149.4998 205° Southwest  Level Estimated
12:00AM -32.4067 149.4587 203° Southwest  Level Aus ATC (Calculated)
12:01AM -32.3482 149.4911 205° Southwest  Level Estimated
12:01AM -32.4067 149.4587 203° Southwest  Level Aus ATC (Calculated)
12:02AM -32.4848 149.4190 205° Southwest 165 190 7,800 4,860 Climbing Aus ATC (RADAR)
12:03AM -32.5295 149.3941 205° Southwest 170 196 7,900 60 Climbing Aus ATC (RADAR)
12:03AM -32.5290 149.3930 206° Southwest 163 188 7,900  Level FlightAware
12:03AM -32.5473 149.3838 206° Southwest 170 196 7,900  Level Aus ATC (RADAR)
12:04AM -32.5560 149.3780 205° Southwest 161 185 7,900  Level FlightAware
12:04AM -32.5717 149.3706 205° Southwest 167 192 7,900  Level Aus ATC (RADAR)
12:04AM -32.5900 149.3600 205° Southwest 166 191 7,900  Level FlightAware
12:05AM -32.6130 149.3470 205° Southwest 164 189 7,900  Level FlightAware
12:05AM -32.6260 149.3400 204° Southwest 166 191 7,900  Level FlightAware
12:06AM -32.6607 149.3212 204° Southwest 168 193 7,900  Level Aus ATC (RADAR)
12:06AM -32.6620 149.3200 204° Southwest 162 186 7,900 -240 Level FlightAware
12:06AM -32.6796 149.3103 204° Southwest 168 193 7,800  Descending Aus ATC (RADAR)
12:06AM -32.6800 149.3090 204° Southwest 161 185 7,900 120 Climbing FlightAware
12:07AM -32.7048 149.2958 204° Southwest 170 196 7,900  Level Aus ATC (RADAR)
12:07AM -32.7060 149.2950 204° Southwest 163 188 7,900  Level FlightAware
12:08AM -32.7230 149.2850 206° Southwest 163 188 7,900 -120 Level FlightAware
12:08AM -32.7592 149.2656 206° Southwest 164 189 7,800  Descending Aus ATC (RADAR)
12:08AM -32.7590 149.2650 206° Southwest 166 191 7,900  Climbing FlightAware
12:09AM -32.7766 149.2555 206° Southwest 165 190 7,800  Descending Aus ATC (RADAR)
12:09AM -32.7860 149.2500 206° Southwest 164 189 7,900 60 Climbing FlightAware
12:10AM -32.8090 149.2370 205° Southwest 165 190 7,900  Level FlightAware
12:10AM -32.8270 149.2270 205° Southwest 166 191 7,900  Level FlightAware
12:10AM -32.8470 149.2160 205° Southwest 166 191 7,900  Level FlightAware
12:11AM -32.8590 149.2090 206° Southwest 160 184 7,900  Level FlightAware
12:11AM -32.8860 149.1940 205° Southwest 160 184 7,900 -120 Level FlightAware
12:12AM -32.9060 149.1827 205° Southwest 166 191 7,800  Descending Aus ATC (RADAR)
12:12AM -32.9150 149.1730 205° Southwest 161 185 7,900  Climbing FlightAware
12:13AM -32.9383 149.1518 205° Southwest 162 186 7,800  Descending Aus ATC (RADAR)
12:13AM -32.9370 149.1520 205° Southwest 161 185 7,900 120 Climbing FlightAware
12:13AM -32.9570 149.1350 215° Southwest 159 183 7,900  Level FlightAware
12:14AM -32.9660 149.1260 220° Southwest 159 183 7,900  Level FlightAware
12:14AM -32.9890 149.1050 217° Southwest 160 184 7,900  Level FlightAware
12:15AM -33.0030 149.0920 218° Southwest 151 174 7,900  Level FlightAware
12:15AM -33.0227 149.0747 218° Southwest 156 180 7,900  Level Aus ATC (RADAR)
12:15AM -33.0180 149.0780 218° Southwest 151 174 7,900  Level FlightAware
12:16AM -33.0380 149.0600 217° Southwest 151 174 7,900  Level FlightAware
12:16AM -33.0490 149.0500 217° Southwest 150 173 7,900 -180 Level FlightAware
12:16AM -33.0696 149.0318 217° Southwest 158 182 7,800  Descending Aus ATC (RADAR)
12:16AM -33.0650 149.0350 217° Southwest 150 173 7,900 180 Climbing FlightAware
12:17AM -33.0840 149.0180 217° Southwest 151 174 7,900  Level FlightAware
12:17AM -33.1020 149.0020 217° Southwest 152 175 7,900  Level FlightAware
12:18AM -33.1190 148.9860 218° Southwest 153 176 7,900  Level FlightAware
12:19AM -33.1430 148.9630 219° Southwest 152 175 7,900  Level FlightAware
12:19AM -33.1580 148.9500 216° Southwest 151 174 7,900 -120 Level FlightAware
12:20AM -33.1740 148.9350 218° Southwest 165 190 7,800 -180 Descending FlightAware
12:20AM -33.1840 148.9250 220° Southwest 162 186 7,800  Level FlightAware
12:20AM -33.1990 148.9110 218° Southwest 163 188 7,800 -180 Level FlightAware
12:21AM -33.2157 148.8974 218° Southwest 162 186 7,700 -300 Descending Aus ATC (RADAR)
12:21AM -33.2455 148.8693 218° Southwest 166 191 7,500 -240 Descending Aus ATC (RADAR)
12:22AM -33.2490 148.8660 218° Southwest 165 190 7,500 -180 Level FlightAware
12:22AM -33.2668 148.8499 218° Southwest 164 189 7,400 -300 Descending Aus ATC (RADAR)
12:23AM -33.2910 148.8260 218° Southwest 166 191 7,200 -240 Descending FlightAware
12:23AM -33.3100 148.8090 217° Southwest 166 191 7,100 -300 Descending FlightAware
12:24AM -33.3190 148.8010 217° Southwest 168 193 7,000 -300 Descending FlightAware
12:24AM -33.3350 148.7860 218° Southwest 164 189 6,900 -300 Descending FlightAware
12:24AM -33.3511 148.7719 218° Southwest 160 184 6,800  Descending Aus ATC (RADAR)
12:24AM -33.3530 148.7700 218° Southwest 151 174 6,900 180 Climbing FlightAware
12:25AM -33.3670 148.7570 218° Southwest 149 171 6,900  Level FlightAware
12:25AM -33.3787 148.7457 218° Southwest 156 180 6,900  Level Aus ATC (RADAR)
12:25AM -33.3840 148.7410 218° Southwest 149 171 6,900  Level FlightAware
12:26AM -33.3988 148.7263 218° Southwest 159 183 6,900  Level Aus ATC (RADAR)
12:26AM -33.4010 148.7250 218° Southwest 151 174 6,900  Level FlightAware
12:26AM -33.4150 148.7120 218° Southwest 152 175 6,900  Level FlightAware
12:27AM -33.4330 148.6960 217° Southwest 149 171 6,900  Level FlightAware
12:27AM -33.4470 148.6820 220° Southwest 152 175 6,900 -240 Level FlightAware
12:28AM -33.4650 148.6650 218° Southwest 168 193 6,700 -420 Descending FlightAware
12:28AM -33.4850 148.6470 217° Southwest 166 191 6,500 -480 Descending FlightAware
12:29AM -33.5000 148.6330 218° Southwest 164 189 6,300 -540 Descending FlightAware
12:29AM -33.5169 148.6185 218° Southwest 169 194 6,100 -420 Descending Aus ATC (RADAR)
12:29AM -33.5190 148.6150 218° Southwest 165 190 6,100 -420 Level FlightAware
12:30AM -33.5350 148.6000 218° Southwest 169 194 5,900 -600 Descending FlightAware
12:30AM -33.5480 148.5899 218° Southwest 168 193 5,700 -540 Descending Aus ATC (RADAR)
12:30AM -33.5570 148.5800 218° Southwest 166 191 5,600 -360 Descending FlightAware
12:30AM -33.5700 148.5685 218° Southwest 173 199 5,500 -480 Descending Aus ATC (RADAR)
12:31AM -33.5730 148.5650 218° Southwest 169 194 5,400 -540 Descending FlightAware
12:31AM -33.5830 148.5560 217° Southwest 168 193 5,300 -420 Descending FlightAware
12:31AM -33.5940 148.5500 204° Southwest 184 212 5,200 -120 Descending FlightAware
12:32AM -33.6260 148.5600 165° South 154 177 5,200 -180 Level FlightAware
12:32AM -33.6460 148.5680 162° South 140 161 5,000 -480 Descending FlightAware
12:33AM -33.6620 148.5740 163° South 141 162 4,800 -600 Descending FlightAware
12:33AM -33.6790 148.5810 161° South 136 157 4,500 -780 Descending FlightAware
12:33AM -33.6940 148.5872 161° South 140 161 4,200 -240 Descending Aus ATC (RADAR)
12:34AM -33.6970 148.5880 161° South 134 154 4,400 -840 Climbing FlightAware
12:34AM -33.7294 148.6010 161° South 127 146 3,400 -1,080 Descending Aus ATC (RADAR)
12:35AM -33.7543 148.6107 162° South 108 124 2,700 -720 Descending Aus ATC (RADAR)
12:36AM -33.7704 148.6176 161° South 101 116 2,400 -540 Descending Aus ATC (RADAR)
12:36AM -33.7769 148.6204 160° South 101 116 2,300 -420 Descending Aus ATC (RADAR)
12:38AM -33.8009 148.6304 161° South  Level Estimated
12:45AM -33.8447 148.6489 161° South  Level Estimated
12:46AM -33.8447 148.6489 203° Southwest  Level Estimated
12:47AM -33.8447 148.6489 203° Southwest  Level Estimated
12:48AM -33.8447 148.6489 203° Southwest  Level Estimated
12:49AM -33.8447 148.6489 203° Southwest  Level Estimated
12:50AM -33.8447 148.6489 203° Southwest  Level Estimated
12:51AM -33.8447 148.6489 203° Southwest  Level Estimated
12:52AM -33.8447 148.6489 203° Southwest  Level Estimated
12:53AM -33.8447 148.6489 203° Southwest  Level Estimated